sensor_id;sensor_type;location;lat;lon;timestamp;pressure;altitude;pressure_sealevel;temperature
15360;BMP280;7779;49.596;11.070;2023-08-01T00:01:32;97236.41;;;21.25
15360;BMP280;7779;49.596;11.070;2023-08-01T00:03:57;97227.88;;;21.24
15360;BMP280;7779;49.596;11.070;2023-08-01T00:06:23;97224.50;;;21.24
15360;BMP280;7779;49.596;11.070;2023-08-01T00:08:51;97219.41;;;21.24
15360;BMP280;7779;49.596;11.070;2023-08-01T00:11:17;97228.75;;;21.25
15360;BMP280;7779;49.596;11.070;2023-08-01T00:13:42;97227.03;;;21.24
15360;BMP280;7779;49.596;11.070;2023-08-01T00:16:09;97226.22;;;21.25
15360;BMP280;7779;49.596;11.070;2023-08-01T00:18:35;97216.84;;;21.24
15360;BMP280;7779;49.596;11.070;2023-08-01T00:21:02;97222.78;;;21.26
15360;BMP280;7779;49.596;11.070;2023-08-01T00:23:31;97218.53;;;21.26
15360;BMP280;7779;49.596;11.070;2023-08-01T00:25:57;97221.91;;;21.28
15360;BMP280;7779;49.596;11.070;2023-08-01T00:28:22;97216.00;;;21.31
15360;BMP280;7779;49.596;11.070;2023-08-01T00:30:48;97221.94;;;21.31
15360;BMP280;7779;49.596;11.070;2023-08-01T00:33:14;97221.09;;;21.31
15360;BMP280;7779;49.596;11.070;2023-08-01T00:35:41;97220.22;;;21.32
15360;BMP280;7779;49.596;11.070;2023-08-01T00:38:06;97211.75;;;21.34
15360;BMP280;7779;49.596;11.070;2023-08-01T00:40:33;97207.47;;;21.35
15360;BMP280;7779;49.596;11.070;2023-08-01T00:43:00;97200.69;;;21.35
15360;BMP280;7779;49.596;11.070;2023-08-01T00:45:27;97206.66;;;21.36
15360;BMP280;7779;49.596;11.070;2023-08-01T00:47:54;97199.84;;;21.38
15360;BMP280;7779;49.596;11.070;2023-08-01T00:50:20;97194.75;;;21.36
15360;BMP280;7779;49.596;11.070;2023-08-01T00:52:49;97191.34;;;21.36
15360;BMP280;7779;49.596;11.070;2023-08-01T00:55:16;97187.09;;;21.36
15360;BMP280;7779;49.596;11.070;2023-08-01T00:57:42;97181.16;;;21.36
15360;BMP280;7779;49.596;11.070;2023-08-01T01:00:09;97181.16;;;21.36
15360;BMP280;7779;49.596;11.070;2023-08-01T01:02:36;97171.81;;;21.36
15360;BMP280;7779;49.596;11.070;2023-08-01T01:05:03;97172.66;;;21.35
15360;BMP280;7779;49.596;11.070;2023-08-01T01:07:30;97169.28;;;21.35
15360;BMP280;7779;49.596;11.070;2023-08-01T01:09:57;97165.88;;;21.34
15360;BMP280;7779;49.596;11.070;2023-08-01T01:12:23;97159.94;;;21.34
15360;BMP280;7779;49.596;11.070;2023-08-01T01:14:49;97162.50;;;21.34
15360;BMP280;7779;49.596;11.070;2023-08-01T01:17:15;97153.97;;;21.33
15360;BMP280;7779;49.596;11.070;2023-08-01T01:19:41;97149.75;;;21.32
15360;BMP280;7779;49.596;11.070;2023-08-01T01:22:09;97148.88;;;21.32
15360;BMP280;7779;49.596;11.070;2023-08-01T01:24:37;97139.56;;;21.31
15360;BMP280;7779;49.596;11.070;2023-08-01T01:27:04;97136.19;;;21.29
15360;BMP280;7779;49.596;11.070;2023-08-01T01:29:33;97126.84;;;21.28
15360;BMP280;7779;49.596;11.070;2023-08-01T01:32:00;97126.00;;;21.26
15360;BMP280;7779;49.596;11.070;2023-08-01T01:34:28;97126.00;;;21.24
15360;BMP280;7779;49.596;11.070;2023-08-01T01:36:54;97120.91;;;21.23
15360;BMP280;7779;49.596;11.070;2023-08-01T01:39:20;97120.06;;;21.21
15360;BMP280;7779;49.596;11.070;2023-08-01T01:41:46;97110.75;;;21.21
15360;BMP280;7779;49.596;11.070;2023-08-01T01:44:12;97099.69;;;21.21
15360;BMP280;7779;49.596;11.070;2023-08-01T01:46:38;97092.94;;;21.20
15360;BMP280;7779;49.596;11.070;2023-08-01T01:49:03;97093.75;;;21.19
15360;BMP280;7779;49.596;11.070;2023-08-01T01:51:30;97091.22;;;21.17
15360;BMP280;7779;49.596;11.070;2023-08-01T01:53:56;97084.44;;;21.15
15360;BMP280;7779;49.596;11.070;2023-08-01T01:56:22;97086.16;;;21.16
15360;BMP280;7779;49.596;11.070;2023-08-01T01:58:48;97077.69;;;21.14
15360;BMP280;7779;49.596;11.070;2023-08-01T02:01:14;97080.22;;;21.14
15360;BMP280;7779;49.596;11.070;2023-08-01T02:03:40;97070.03;;;21.14
15360;BMP280;7779;49.596;11.070;2023-08-01T02:06:06;97071.72;;;21.14
15360;BMP280;7779;49.596;11.070;2023-08-01T02:08:32;97064.94;;;21.13
15360;BMP280;7779;49.596;11.070;2023-08-01T02:10:58;97062.41;;;21.11
15360;BMP280;7779;49.596;11.070;2023-08-01T02:13:28;97050.50;;;21.10
15360;BMP280;7779;49.596;11.070;2023-08-01T02:15:54;97047.13;;;21.08
15360;BMP280;7779;49.596;11.070;2023-08-01T02:18:20;97039.50;;;21.08
15360;BMP280;7779;49.596;11.070;2023-08-01T02:20:46;97040.38;;;21.09
15360;BMP280;7779;49.596;11.070;2023-08-01T02:23:12;97034.41;;;21.10
15360;BMP280;7779;49.596;11.070;2023-08-01T02:25:42;97034.41;;;21.10
15360;BMP280;7779;49.596;11.070;2023-08-01T02:28:08;97009.81;;;21.07
15360;BMP280;7779;49.596;11.070;2023-08-01T02:30:38;97006.38;;;21.08
15360;BMP280;7779;49.596;11.070;2023-08-01T02:33:04;96997.91;;;21.08
15360;BMP280;7779;49.596;11.070;2023-08-01T02:35:30;97003.00;;;21.09
15360;BMP280;7779;49.596;11.070;2023-08-01T02:37:56;97008.94;;;21.08
15360;BMP280;7779;49.596;11.070;2023-08-01T02:40:22;97012.34;;;21.09
15360;BMP280;7779;49.596;11.070;2023-08-01T02:42:48;97009.81;;;21.09
15360;BMP280;7779;49.596;11.070;2023-08-01T02:45:14;97008.09;;;21.06
15360;BMP280;7779;49.596;11.070;2023-08-01T02:47:40;97008.97;;;21.04
15360;BMP280;7779;49.596;11.070;2023-08-01T02:50:06;97011.53;;;21.04
15360;BMP280;7779;49.596;11.070;2023-08-01T02:52:32;97003.03;;;21.03
15360;BMP280;7779;49.596;11.070;2023-08-01T02:54:58;97006.44;;;21.05
15360;BMP280;7779;49.596;11.070;2023-08-01T02:57:24;97001.28;;;21.08
15360;BMP280;7779;49.596;11.070;2023-08-01T02:59:50;96999.59;;;21.10
15360;BMP280;7779;49.596;11.070;2023-08-01T03:02:15;96993.66;;;21.10
15360;BMP280;7779;49.596;11.070;2023-08-01T03:04:41;97001.28;;;21.11
15360;BMP280;7779;49.596;11.070;2023-08-01T03:07:07;97000.44;;;21.11
15360;BMP280;7779;49.596;11.070;2023-08-01T03:09:33;97004.69;;;21.12
15360;BMP280;7779;49.596;11.070;2023-08-01T03:11:59;97006.38;;;21.13
15360;BMP280;7779;49.596;11.070;2023-08-01T03:14:24;97004.66;;;21.13
15360;BMP280;7779;49.596;11.070;2023-08-01T03:16:50;97014.00;;;21.14
15360;BMP280;7779;49.596;11.070;2023-08-01T03:19:16;97014.84;;;21.13
15360;BMP280;7779;49.596;11.070;2023-08-01T03:21:41;97003.84;;;21.14
15360;BMP280;7779;49.596;11.070;2023-08-01T03:24:07;97008.94;;;21.13
15360;BMP280;7779;49.596;11.070;2023-08-01T03:26:36;96992.78;;;21.12
15360;BMP280;7779;49.596;11.070;2023-08-01T03:29:02;96986.00;;;21.11
15360;BMP280;7779;49.596;11.070;2023-08-01T03:31:28;96994.50;;;21.10
15360;BMP280;7779;49.596;11.070;2023-08-01T03:33:55;96983.47;;;21.08
15360;BMP280;7779;49.596;11.070;2023-08-01T03:36:20;96982.63;;;21.06
15360;BMP280;7779;49.596;11.070;2023-08-01T03:38:46;96985.19;;;21.06
15360;BMP280;7779;49.596;11.070;2023-08-01T03:41:13;96986.06;;;21.05
15360;BMP280;7779;49.596;11.070;2023-08-01T03:43:39;96980.13;;;21.02
15360;BMP280;7779;49.596;11.070;2023-08-01T03:46:06;96968.25;;;21.01
15360;BMP280;7779;49.596;11.070;2023-08-01T03:48:32;96961.47;;;20.98
15360;BMP280;7779;49.596;11.070;2023-08-01T03:50:58;96952.13;;;20.96
15360;BMP280;7779;49.596;11.070;2023-08-01T03:53:26;96958.09;;;20.96
15360;BMP280;7779;49.596;11.070;2023-08-01T03:55:51;96948.75;;;20.95
15360;BMP280;7779;49.596;11.070;2023-08-01T03:58:17;96942.81;;;20.96
15360;BMP280;7779;49.596;11.070;2023-08-01T04:00:43;96946.22;;;20.95
15360;BMP280;7779;49.596;11.070;2023-08-01T04:03:09;96942.81;;;20.96
15360;BMP280;7779;49.596;11.070;2023-08-01T04:05:34;96927.56;;;20.96
15360;BMP280;7779;49.596;11.070;2023-08-01T04:08:00;96930.94;;;20.98
15360;BMP280;7779;49.596;11.070;2023-08-01T04:10:26;96928.38;;;20.98
15360;BMP280;7779;49.596;11.070;2023-08-01T04:12:51;96922.41;;;20.99
15360;BMP280;7779;49.596;11.070;2023-08-01T04:15:17;96916.50;;;21.00
15360;BMP280;7779;49.596;11.070;2023-08-01T04:17:43;96915.66;;;21.00
15360;BMP280;7779;49.596;11.070;2023-08-01T04:20:09;96909.69;;;20.99
15360;BMP280;7779;49.596;11.070;2023-08-01T04:22:35;96910.56;;;20.98
15360;BMP280;7779;49.596;11.070;2023-08-01T04:25:04;96908.00;;;21.00
15360;BMP280;7779;49.596;11.070;2023-08-01T04:27:30;96907.16;;;20.99
15360;BMP280;7779;49.596;11.070;2023-08-01T04:29:56;96906.31;;;21.00
15360;BMP280;7779;49.596;11.070;2023-08-01T04:32:21;96902.91;;;21.00
15360;BMP280;7779;49.596;11.070;2023-08-01T04:34:47;96899.50;;;20.99
15360;BMP280;7779;49.596;11.070;2023-08-01T04:37:13;96891.88;;;20.99
15360;BMP280;7779;49.596;11.070;2023-08-01T04:39:39;96889.31;;;20.99
15360;BMP280;7779;49.596;11.070;2023-08-01T04:42:05;96885.94;;;21.00
15360;BMP280;7779;49.596;11.070;2023-08-01T04:44:31;96889.31;;;20.99
15360;BMP280;7779;49.596;11.070;2023-08-01T04:46:57;96884.22;;;21.01
15360;BMP280;7779;49.596;11.070;2023-08-01T04:49:23;96889.31;;;21.01
15360;BMP280;7779;49.596;11.070;2023-08-01T04:51:51;96886.75;;;21.02
15360;BMP280;7779;49.596;11.070;2023-08-01T04:54:17;96894.41;;;21.05
15360;BMP280;7779;49.596;11.070;2023-08-01T04:56:43;96890.13;;;21.06
15360;BMP280;7779;49.596;11.070;2023-08-01T04:59:08;96888.44;;;21.06
15360;BMP280;7779;49.596;11.070;2023-08-01T05:01:34;96907.09;;;21.07
15360;BMP280;7779;49.596;11.070;2023-08-01T05:04:00;96895.22;;;21.07
15360;BMP280;7779;49.596;11.070;2023-08-01T05:06:25;96896.06;;;21.09
15360;BMP280;7779;49.596;11.070;2023-08-01T05:08:53;96894.34;;;21.11
15360;BMP280;7779;49.596;11.070;2023-08-01T05:11:19;96890.91;;;21.12
15360;BMP280;7779;49.596;11.070;2023-08-01T05:13:45;96902.81;;;21.13
15360;BMP280;7779;49.596;11.070;2023-08-01T05:16:11;96902.81;;;21.16
15360;BMP280;7779;49.596;11.070;2023-08-01T05:18:36;96901.09;;;21.18
15360;BMP280;7779;49.596;11.070;2023-08-01T05:21:02;96912.94;;;21.20
15360;BMP280;7779;49.596;11.070;2023-08-01T05:23:28;96910.38;;;21.22
15360;BMP280;7779;49.596;11.070;2023-08-01T05:25:54;96917.16;;;21.24
15360;BMP280;7779;49.596;11.070;2023-08-01T05:28:19;96921.41;;;21.25
15360;BMP280;7779;49.596;11.070;2023-08-01T05:30:46;96909.50;;;21.27
15360;BMP280;7779;49.596;11.070;2023-08-01T05:33:12;96912.03;;;21.27
15360;BMP280;7779;49.596;11.070;2023-08-01T05:35:38;96917.97;;;21.28
15360;BMP280;7779;49.596;11.070;2023-08-01T05:38:04;96917.13;;;21.30
15360;BMP280;7779;49.596;11.070;2023-08-01T05:40:29;96912.03;;;21.30
15360;BMP280;7779;49.596;11.070;2023-08-01T05:42:55;96912.00;;;21.32
15360;BMP280;7779;49.596;11.070;2023-08-01T05:45:21;96912.00;;;21.33
15360;BMP280;7779;49.596;11.070;2023-08-01T05:47:46;96909.44;;;21.35
15360;BMP280;7779;49.596;11.070;2023-08-01T05:50:12;96910.28;;;21.35
15360;BMP280;7779;49.596;11.070;2023-08-01T05:52:38;96906.03;;;21.36
15360;BMP280;7779;49.596;11.070;2023-08-01T05:55:04;96910.28;;;21.35
15360;BMP280;7779;49.596;11.070;2023-08-01T05:57:30;96909.44;;;21.35
15360;BMP280;7779;49.596;11.070;2023-08-01T05:59:56;96918.75;;;21.37
15360;BMP280;7779;49.596;11.070;2023-08-01T06:02:21;96913.66;;;21.37
15360;BMP280;7779;49.596;11.070;2023-08-01T06:04:47;96913.63;;;21.39
15360;BMP280;7779;49.596;11.070;2023-08-01T06:07:13;96912.78;;;21.40
15360;BMP280;7779;49.596;11.070;2023-08-01T06:09:38;96909.41;;;21.41
15360;BMP280;7779;49.596;11.070;2023-08-01T06:12:05;96918.75;;;21.42
15360;BMP280;7779;49.596;11.070;2023-08-01T06:14:31;96926.38;;;21.43
15360;BMP280;7779;49.596;11.070;2023-08-01T06:16:56;96911.94;;;21.47
15360;BMP280;7779;49.596;11.070;2023-08-01T06:19:22;96906.78;;;21.48
15360;BMP280;7779;49.596;11.070;2023-08-01T06:21:48;96908.50;;;21.51
15360;BMP280;7779;49.596;11.070;2023-08-01T06:24:13;96917.81;;;21.52
15360;BMP280;7779;49.596;11.070;2023-08-01T06:26:39;96913.53;;;21.54
15360;BMP280;7779;49.596;11.070;2023-08-01T06:29:05;96923.72;;;21.54
15360;BMP280;7779;49.596;11.070;2023-08-01T06:31:30;96919.50;;;21.54
15360;BMP280;7779;49.596;11.070;2023-08-01T06:33:56;96931.38;;;21.54
15360;BMP280;7779;49.596;11.070;2023-08-01T06:36:23;96935.63;;;21.56
15360;BMP280;7779;49.596;11.070;2023-08-01T06:38:49;96936.47;;;21.56
15360;BMP280;7779;49.596;11.070;2023-08-01T06:41:14;96948.38;;;21.56
15360;BMP280;7779;49.596;11.070;2023-08-01T06:43:40;96952.59;;;21.57
15360;BMP280;7779;49.596;11.070;2023-08-01T06:46:06;96952.59;;;21.57
15360;BMP280;7779;49.596;11.070;2023-08-01T06:48:32;96944.09;;;21.58
15360;BMP280;7779;49.596;11.070;2023-08-01T06:51:00;96942.38;;;21.60
15360;BMP280;7779;49.596;11.070;2023-08-01T06:53:27;96934.72;;;21.61
15360;BMP280;7779;49.596;11.070;2023-08-01T06:55:53;96938.09;;;21.63
15360;BMP280;7779;49.596;11.070;2023-08-01T06:58:18;96939.81;;;21.64
15360;BMP280;7779;49.596;11.070;2023-08-01T07:00:44;96935.50;;;21.68
15360;BMP280;7779;49.596;11.070;2023-08-01T07:03:10;96938.03;;;21.69
15360;BMP280;7779;49.596;11.070;2023-08-01T07:05:36;96931.22;;;21.71
15360;BMP280;7779;49.596;11.070;2023-08-01T07:08:02;96935.47;;;21.74
15360;BMP280;7779;49.596;11.070;2023-08-01T07:10:28;96936.28;;;21.77
15360;BMP280;7779;49.596;11.070;2023-08-01T07:12:54;96939.66;;;21.79
15360;BMP280;7779;49.596;11.070;2023-08-01T07:15:19;96934.50;;;21.82
15360;BMP280;7779;49.596;11.070;2023-08-01T07:17:45;96928.56;;;21.86
15360;BMP280;7779;49.596;11.070;2023-08-01T07:20:11;96926.84;;;21.88
15360;BMP280;7779;49.596;11.070;2023-08-01T07:22:37;96926.81;;;21.90
15360;BMP280;7779;49.596;11.070;2023-08-01T07:25:03;96921.72;;;21.90
15360;BMP280;7779;49.596;11.070;2023-08-01T07:27:29;96918.28;;;21.92
15360;BMP280;7779;49.596;11.070;2023-08-01T07:29:54;96909.75;;;21.94
15360;BMP280;7779;49.596;11.070;2023-08-01T07:32:20;96902.09;;;21.96
15360;BMP280;7779;49.596;11.070;2023-08-01T07:34:46;96917.41;;;21.96
15360;BMP280;7779;49.596;11.070;2023-08-01T07:37:11;96925.03;;;21.97
15360;BMP280;7779;49.596;11.070;2023-08-01T07:39:37;96926.69;;;21.98
15360;BMP280;7779;49.596;11.070;2023-08-01T07:42:03;96917.38;;;21.99
15360;BMP280;7779;49.596;11.070;2023-08-01T07:44:30;96917.31;;;22.02
15360;BMP280;7779;49.596;11.070;2023-08-01T07:46:57;96910.53;;;22.01
15360;BMP280;7779;49.596;11.070;2023-08-01T07:49:23;96908.00;;;22.01
15360;BMP280;7779;49.596;11.070;2023-08-01T07:51:48;96912.22;;;22.02
15360;BMP280;7779;49.596;11.070;2023-08-01T07:54:14;96915.59;;;22.04
15360;BMP280;7779;49.596;11.070;2023-08-01T07:56:40;96913.03;;;22.04
15360;BMP280;7779;49.596;11.070;2023-08-01T07:59:06;96917.31;;;22.05
15360;BMP280;7779;49.596;11.070;2023-08-01T08:01:31;96905.38;;;22.05
15360;BMP280;7779;49.596;11.070;2023-08-01T08:03:57;96898.63;;;22.01
15360;BMP280;7779;49.596;11.070;2023-08-01T08:06:23;96903.69;;;22.06
15360;BMP280;7779;49.596;11.070;2023-08-01T08:08:49;96896.88;;;22.06
15360;BMP280;7779;49.596;11.070;2023-08-01T08:11:15;96889.25;;;22.06
15360;BMP280;7779;49.596;11.070;2023-08-01T08:13:42;96883.31;;;22.06
15360;BMP280;7779;49.596;11.070;2023-08-01T08:16:08;96899.47;;;22.03
15360;BMP280;7779;49.596;11.070;2023-08-01T08:18:34;96880.78;;;22.01
15360;BMP280;7779;49.596;11.070;2023-08-01T08:20:59;96900.34;;;22.02
15360;BMP280;7779;49.596;11.070;2023-08-01T08:23:25;96903.72;;;22.01
15360;BMP280;7779;49.596;11.070;2023-08-01T08:25:51;96922.41;;;22.02
15360;BMP280;7779;49.596;11.070;2023-08-01T08:28:31;96924.97;;;22.03
15360;BMP280;7779;49.596;11.070;2023-08-01T08:31:00;96916.47;;;22.03
15360;BMP280;7779;49.596;11.070;2023-08-01T08:33:27;96932.59;;;22.05
15360;BMP280;7779;49.596;11.070;2023-08-01T08:35:53;96912.19;;;22.06
15360;BMP280;7779;49.596;11.070;2023-08-01T08:38:19;96921.50;;;22.07
15360;BMP280;7779;49.596;11.070;2023-08-01T08:41:14;96929.97;;;22.11
15360;BMP280;7779;49.596;11.070;2023-08-01T08:43:42;96921.50;;;22.09
15360;BMP280;7779;49.596;11.070;2023-08-01T08:46:09;96900.25;;;22.10
15360;BMP280;7779;49.596;11.070;2023-08-01T08:48:35;96889.16;;;22.11
15360;BMP280;7779;49.596;11.070;2023-08-01T08:51:03;96845.84;;;22.09
15360;BMP280;7779;49.596;11.070;2023-08-01T08:53:31;96855.19;;;22.09
15360;BMP280;7779;49.596;11.070;2023-08-01T08:56:00;96831.41;;;22.10
15360;BMP280;7779;49.596;11.070;2023-08-01T08:58:26;96832.22;;;22.10
15360;BMP280;7779;49.596;11.070;2023-08-01T09:00:52;96810.13;;;22.11
15360;BMP280;7779;49.596;11.070;2023-08-01T09:03:17;96804.16;;;22.13
15360;BMP280;7779;49.596;11.070;2023-08-01T09:05:51;96848.34;;;22.14
15360;BMP280;7779;49.596;11.070;2023-08-01T09:08:21;96893.44;;;22.12
15360;BMP280;7779;49.596;11.070;2023-08-01T09:10:49;96884.06;;;22.14
15360;BMP280;7779;49.596;11.070;2023-08-01T09:13:15;96894.25;;;22.17
15360;BMP280;7779;49.596;11.070;2023-08-01T09:15:42;96888.25;;;22.19
15360;BMP280;7779;49.596;11.070;2023-08-01T09:18:09;96894.19;;;22.23
15360;BMP280;7779;49.596;11.070;2023-08-01T09:21:02;96883.06;;;22.27
15360;BMP280;7779;49.596;11.070;2023-08-01T09:23:28;96888.16;;;22.30
15360;BMP280;7779;49.596;11.070;2023-08-01T09:25:55;96884.69;;;22.35
15360;BMP280;7779;49.596;11.070;2023-08-01T09:28:24;96896.47;;;22.43
15360;BMP280;7779;49.596;11.070;2023-08-01T09:30:55;96884.47;;;22.51
15360;BMP280;7779;49.596;11.070;2023-08-01T09:33:22;96884.38;;;22.57
15360;BMP280;7779;49.596;11.070;2023-08-01T09:35:51;96885.16;;;22.62
15360;BMP280;7779;49.596;11.070;2023-08-01T09:38:18;96893.63;;;22.67
15360;BMP280;7779;49.596;11.070;2023-08-01T09:40:45;96895.25;;;22.71
15360;BMP280;7779;49.596;11.070;2023-08-01T09:43:12;96886.66;;;22.76
15360;BMP280;7779;49.596;11.070;2023-08-01T09:45:49;96886.53;;;22.85
15360;BMP280;7779;49.596;11.070;2023-08-01T09:48:27;96878.78;;;22.96
15360;BMP280;7779;49.596;11.070;2023-08-01T09:51:11;96880.28;;;23.07
15360;BMP280;7779;49.596;11.070;2023-08-01T09:53:57;96862.28;;;23.14
15360;BMP280;7779;49.596;11.070;2023-08-01T09:56:25;96870.66;;;23.24
15360;BMP280;7779;49.596;11.070;2023-08-01T09:58:54;96861.19;;;23.30
15360;BMP280;7779;49.596;11.070;2023-08-01T10:01:23;96862.72;;;23.40
15360;BMP280;7779;49.596;11.070;2023-08-01T10:03:52;96872.84;;;23.46
15360;BMP280;7779;49.596;11.070;2023-08-01T10:06:24;96868.50;;;23.50
15360;BMP280;7779;49.596;11.070;2023-08-01T10:08:53;96855.66;;;23.54
15360;BMP280;7779;49.596;11.070;2023-08-01T10:11:22;96854.72;;;23.61
15360;BMP280;7779;49.596;11.070;2023-08-01T10:13:49;96865.69;;;23.66
15360;BMP280;7779;49.596;11.070;2023-08-01T10:16:15;96856.25;;;23.69
15360;BMP280;7779;49.596;11.070;2023-08-01T10:18:43;96862.22;;;23.70
15360;BMP280;7779;49.596;11.070;2023-08-01T10:21:13;96866.47;;;23.69
15360;BMP280;7779;49.596;11.070;2023-08-01T10:23:40;96857.97;;;23.69
15360;BMP280;7779;49.596;11.070;2023-08-01T10:26:08;96867.34;;;23.70
15360;BMP280;7779;49.596;11.070;2023-08-01T10:28:40;96875.84;;;23.72
15360;BMP280;7779;49.596;11.070;2023-08-01T10:31:11;96862.16;;;23.73
15360;BMP280;7779;49.596;11.070;2023-08-01T10:33:43;96862.09;;;23.77
15360;BMP280;7779;49.596;11.070;2023-08-01T10:36:25;96861.94;;;23.85
15360;BMP280;7779;49.596;11.070;2023-08-01T10:38:56;96856.78;;;23.88
15360;BMP280;7779;49.596;11.070;2023-08-01T10:41:35;96858.50;;;23.86
15360;BMP280;7779;49.596;11.070;2023-08-01T10:44:15;96856.84;;;23.85
15360;BMP280;7779;49.596;11.070;2023-08-01T10:46:58;96859.41;;;23.83
15360;BMP280;7779;49.596;11.070;2023-08-01T10:49:38;96862.78;;;23.85
15360;BMP280;7779;49.596;11.070;2023-08-01T10:52:25;96857.63;;;23.88
15360;BMP280;7779;49.596;11.070;2023-08-01T10:55:04;96855.84;;;23.93
15360;BMP280;7779;49.596;11.070;2023-08-01T10:57:35;96858.25;;;24.00
15360;BMP280;7779;49.596;11.070;2023-08-01T11:00:02;96853.75;;;24.11
15360;BMP280;7779;49.596;11.070;2023-08-01T11:02:30;96853.59;;;24.19
15360;BMP280;7779;49.596;11.070;2023-08-01T11:05:05;96857.75;;;24.24
15360;BMP280;7779;49.596;11.070;2023-08-01T11:07:32;96850.88;;;24.26
15360;BMP280;7779;49.596;11.070;2023-08-01T11:10:13;96848.22;;;24.32
15360;BMP280;7779;49.596;11.070;2023-08-01T11:12:43;96850.69;;;24.38
15360;BMP280;7779;49.596;11.070;2023-08-01T11:15:14;96852.16;;;24.48
15360;BMP280;7779;49.596;11.070;2023-08-01T11:17:48;96861.34;;;24.58
15360;BMP280;7779;49.596;11.070;2023-08-01T11:20:16;96858.63;;;24.65
15360;BMP280;7779;49.596;11.070;2023-08-01T11:25:30;96870.81;;;24.93
15360;BMP280;7779;49.596;11.070;2023-08-01T11:27:56;96861.03;;;25.10
15360;BMP280;7779;49.596;11.070;2023-08-01T11:30:31;96853.03;;;25.22
15360;BMP280;7779;49.596;11.070;2023-08-01T11:32:57;96854.59;;;25.29
15360;BMP280;7779;49.596;11.070;2023-08-01T11:35:23;96848.50;;;25.33
15360;BMP280;7779;49.596;11.070;2023-08-01T11:37:50;96846.84;;;25.32
15360;BMP280;7779;49.596;11.070;2023-08-01T11:40:17;96845.22;;;25.28
15360;BMP280;7779;49.596;11.070;2023-08-01T11:42:49;96898.53;;;25.14
15360;BMP280;7779;49.596;11.070;2023-08-01T11:45:17;96905.72;;;24.97
15360;BMP280;7779;49.596;11.070;2023-08-01T11:47:47;96917.22;;;24.78
15360;BMP280;7779;49.596;11.070;2023-08-01T11:50:14;96922.16;;;24.47
15360;BMP280;7779;49.596;11.070;2023-08-01T11:52:40;96918.59;;;24.09
15360;BMP280;7779;49.596;11.070;2023-08-01T11:55:06;96921.78;;;23.75
15360;BMP280;7779;49.596;11.070;2023-08-01T11:57:32;96926.47;;;23.49
15360;BMP280;7779;49.596;11.070;2023-08-01T11:59:58;96931.84;;;23.31
15360;BMP280;7779;49.596;11.070;2023-08-01T12:02:26;96938.78;;;23.23
15360;BMP280;7779;49.596;11.070;2023-08-01T12:04:53;96927.75;;;23.21
15360;BMP280;7779;49.596;11.070;2023-08-01T12:07:20;96930.31;;;23.21
15360;BMP280;7779;49.596;11.070;2023-08-01T12:10:00;96926.88;;;23.22
15360;BMP280;7779;49.596;11.070;2023-08-01T12:12:27;96927.75;;;23.23
15360;BMP280;7779;49.596;11.070;2023-08-01T12:14:54;96929.38;;;23.28
15360;BMP280;7779;49.596;11.070;2023-08-01T12:17:20;96918.19;;;23.34
15360;BMP280;7779;49.596;11.070;2023-08-01T12:19:46;96919.75;;;23.42
15360;BMP280;7779;49.596;11.070;2023-08-01T12:22:12;96924.81;;;23.47
15360;BMP280;7779;49.596;11.070;2023-08-01T12:24:38;96918.75;;;23.52
15360;BMP280;7779;49.596;11.070;2023-08-01T12:27:08;96897.47;;;23.52
15360;BMP280;7779;49.596;11.070;2023-08-01T12:29:35;96899.16;;;23.51
15360;BMP280;7779;49.596;11.070;2023-08-01T12:32:02;96903.44;;;23.49
15360;BMP280;7779;49.596;11.070;2023-08-01T12:34:28;96900.88;;;23.51
15360;BMP280;7779;49.596;11.070;2023-08-01T12:36:54;96891.47;;;23.52
15360;BMP280;7779;49.596;11.070;2023-08-01T12:39:20;96890.63;;;23.53
15360;BMP280;7779;49.596;11.070;2023-08-01T12:41:46;96895.75;;;23.51
15360;BMP280;7779;49.596;11.070;2023-08-01T12:44:11;96894.94;;;23.50
15360;BMP280;7779;49.596;11.070;2023-08-01T12:46:41;96891.56;;;23.48
15360;BMP280;7779;49.596;11.070;2023-08-01T12:49:07;96911.00;;;23.56
15360;BMP280;7779;49.596;11.070;2023-08-01T12:51:32;96902.25;;;23.71
15360;BMP280;7779;49.596;11.070;2023-08-01T12:53:58;96889.19;;;23.86
15360;BMP280;7779;49.596;11.070;2023-08-01T12:56:24;96893.13;;;24.04
15360;BMP280;7779;49.596;11.070;2023-08-01T12:58:49;96884.22;;;24.23
15360;BMP280;7779;49.596;11.070;2023-08-01T13:01:15;96895.91;;;24.37
15360;BMP280;7779;49.596;11.070;2023-08-01T13:03:41;96881.13;;;24.50
15360;BMP280;7779;49.596;11.070;2023-08-01T13:06:10;96878.22;;;24.66
15360;BMP280;7779;49.596;11.070;2023-08-01T13:08:36;96884.88;;;24.74
15360;BMP280;7779;49.596;11.070;2023-08-01T13:11:13;96884.72;;;24.82
15360;BMP280;7779;49.596;11.070;2023-08-01T13:13:41;96889.84;;;24.82
15360;BMP280;7779;49.596;11.070;2023-08-01T13:16:07;96887.31;;;24.79
15360;BMP280;7779;49.596;11.070;2023-08-01T13:18:33;96886.47;;;24.80
15360;BMP280;7779;49.596;11.070;2023-08-01T13:20:58;96882.16;;;24.80
15360;BMP280;7779;49.596;11.070;2023-08-01T13:23:26;96890.75;;;24.79
15360;BMP280;7779;49.596;11.070;2023-08-01T13:25:51;96889.09;;;24.75
15360;BMP280;7779;49.596;11.070;2023-08-01T13:28:17;96885.63;;;24.79
15360;BMP280;7779;49.596;11.070;2023-08-01T13:30:43;96873.44;;;24.89
15360;BMP280;7779;49.596;11.070;2023-08-01T13:33:09;96875.84;;;24.98
15360;BMP280;7779;49.596;11.070;2023-08-01T13:35:34;96876.53;;;25.04
15360;BMP280;7779;49.596;11.070;2023-08-01T13:38:00;96871.97;;;25.16
15360;BMP280;7779;49.596;11.070;2023-08-01T13:40:26;96878.56;;;25.28
15360;BMP280;7779;49.596;11.070;2023-08-01T13:42:52;96880.88;;;25.37
15360;BMP280;7779;49.596;11.070;2023-08-01T13:45:17;96907.16;;;25.46
15360;BMP280;7779;49.596;11.070;2023-08-01T13:47:43;96907.81;;;25.52
15360;BMP280;7779;49.596;11.070;2023-08-01T13:50:09;96906.81;;;25.61
15360;BMP280;7779;49.596;11.070;2023-08-01T13:52:37;96913.50;;;25.66
15360;BMP280;7779;49.596;11.070;2023-08-01T13:55:03;96917.59;;;25.73
15360;BMP280;7779;49.596;11.070;2023-08-01T13:57:30;96928.44;;;25.84
15360;BMP280;7779;49.596;11.070;2023-08-01T13:59:56;96926.47;;;25.93
15360;BMP280;7779;49.596;11.070;2023-08-01T14:02:22;96928.03;;;25.99
15360;BMP280;7779;49.596;11.070;2023-08-01T14:04:51;96924.53;;;26.01
15360;BMP280;7779;49.596;11.070;2023-08-01T14:07:18;96923.59;;;26.05
15360;BMP280;7779;49.596;11.070;2023-08-01T14:09:44;96917.53;;;26.08
15360;BMP280;7779;49.596;11.070;2023-08-01T14:12:09;96927.81;;;26.08